Accueil
METAR-TAF:

METAR-TAF

Aéroports :

Aéroport de Limoges-Bellegarde

Limoges, France

latitude: 45-52N, longitude: 001-11E, altitude: 396 m

Observation

Le bulletin a été fait il y a 37 minutes, à 18:00 UTC
Vent 2 kt de direction variable
Température 17°C
Humidité 68%
Pression 1026 hPa
Visibilité 10 km ou plus
Quelques nuages à une hauteur de 3300 ft

METAR: LFBL 261800Z AUTO VRB02KT 9999 FEW033 17/11 Q1026 NOSIG

Heure: 20:37 (18:37 UTC)

Prévision

Le bulletin a été fait il y a 1 heure et 37 minutes, à 17:00 UTC
Prévision valable du 26 à 18 UTC au 27 à 18 UTC
Vent 5 kt de nord
Visibilité 10 km ou plus
pas de nuages en-dessous de 1500 mètres et pas de cumulonimbus.
Temporairement
du 26 à 18 UTC au 27 à 10 UTC
Ciel couvert à une hauteur de 3500 ft

TAF: LFBL 261700Z 2618/2718 36005KT CAVOK TEMPO 2618/2710 OVC035

Observations et prévisions météorologiques de plus de 4000 aéroports (messages METAR et TAF).

Les stations disponibles sont représentées par des disques jaunes et rouges sur la carte.

Passer la souris dessus pour voir le nom de la station.

Cliquer dessus pour voir les observations et prévisions météorologiques.

Pour changer de carte: cliquez sur les boutons verts avec une croix noire pour zoomer, sur le bouton vert avec un tiret pour effectuer un zoom arrière, ou sur les flèches vertes pour les cartes adjacentes.


METAR-TAF: